Terminal Aerodrome Forecast
Issued by NWS Upton, NY

Home | Current Version | Previous Version | Text Only | Print | Product List | Glossary On
Versions: 1 2 3 4 5 6 7 8 9 10 11 12 13 14 15 16 17 18 19 20 21 22 23 24 25
000
FTUS41 KOKX 282300
TAFEWR
TAF
KEWR 282322Z 2900/3006 33012KT P6SM FEW050
     FM290900 35008KT P6SM SKC
     FM291500 04005KT P6SM SKC
     FM292000 15008KT P6SM SKC
     FM300000 14005KT P6SM SKC=

USA.gov is the U.S. government's official web portal to all federal, state and local government web resources and services.